Time;durP1;ratioP1;P1;durP2;ratioP2;P2;SDS_P1;SDS_P2;PMS_P1;PMS_P2;Temp;Humidity;BMP_temperature;BMP_pressure;BME280_temperature;BME280_humidity;BME280_pressure;Samples;Min_cycle;Max_cycle;Signal;HPM_P1;HPM_P2
2021/05/19 00:00:54;;;;;;;1.43;1.33;;;8.80;99.90;;;;;;6197334;23;20194;-95
2021/05/19 00:03:20;;;;;;;2.40;1.83;;;8.80;99.90;;;;;;6196550;23;20385;-95
2021/05/19 00:05:46;;;;;;;4.60;1.63;;;8.90;99.90;;;;;;6198495;23;20494;-94
2021/05/19 00:08:11;;;;;;;2.10;1.83;;;8.90;99.90;;;;;;6194006;23;20385;-94
2021/05/19 00:10:38;;;;;;;2.10;1.60;;;8.90;99.90;;;;;;6190910;23;20894;-95
2021/05/19 00:13:05;;;;;;;1.70;1.60;;;8.90;99.90;;;;;;6178253;23;20168;-94
2021/05/19 00:15:31;;;;;;;1.63;1.50;;;8.90;99.90;;;;;;6177764;23;20481;-93
2021/05/19 00:18:02;;;;;;;1.67;1.57;;;8.90;99.90;;;;;;6177702;23;20424;-94
2021/05/19 00:20:27;;;;;;;2.77;1.83;;;8.90;99.90;;;;;;6180402;23;20174;-93
2021/05/19 00:22:53;;;;;;;1.77;1.60;;;8.90;99.90;;;;;;6178536;23;20389;-94
2021/05/19 00:25:19;;;;;;;1.43;1.33;;;8.90;99.90;;;;;;6180877;23;20205;-94
2021/05/19 00:27:45;;;;;;;1.47;1.20;;;8.90;99.90;;;;;;6180769;23;20601;-93
2021/05/19 00:30:16;;;;;;;1.60;1.50;;;8.90;99.90;;;;;;6178011;23;20490;-92
2021/05/19 00:32:44;;;;;;;2.50;1.37;;;8.90;99.90;;;;;;6154335;23;20173;-94
2021/05/19 00:35:10;;;;;;;1.37;1.27;;;8.80;99.90;;;;;;6176961;23;20419;-93
2021/05/19 00:37:35;;;;;;;1.10;1.00;;;8.80;99.90;;;;;;6179506;23;20420;-92
2021/05/19 00:40:01;;;;;;;1.10;1.10;;;8.90;99.90;;;;;;6178451;23;20479;-93
2021/05/19 00:42:27;;;;;;;1.50;1.30;;;8.90;99.90;;;;;;6176847;23;20153;-92
2021/05/19 00:44:53;;;;;;;1.43;1.33;;;8.90;99.90;;;;;;6177062;23;20200;-93
2021/05/19 00:47:38;;;;;;;1.40;1.30;;;8.90;99.90;;;;;;6177831;23;20164;-95
2021/05/19 00:50:07;;;;;;;1.23;1.23;;;8.80;99.90;;;;;;6177987;23;20162;-93
2021/05/19 00:52:33;;;;;;;1.57;1.47;;;8.90;99.90;;;;;;6152265;23;20392;-93
2021/05/19 00:54:59;;;;;;;1.77;1.20;;;8.80;99.90;;;;;;6178164;23;20455;-96
2021/05/19 00:57:31;;;;;;;1.30;1.30;;;8.80;99.90;;;;;;6183152;23;20168;-96
2021/05/19 00:59:58;;;;;;;2.50;1.60;;;8.80;99.90;;;;;;6199709;23;20407;-96
2021/05/19 01:02:24;;;;;;;1.50;1.40;;;8.80;99.90;;;;;;6196845;23;20454;-95
2021/05/19 01:04:50;;;;;;;1.43;1.33;;;8.80;99.90;;;;;;6192509;23;20424;-95
2021/05/19 01:09:45;;;;;;;1.27;1.27;;;8.70;99.90;;;;;;6179991;23;20424;-96
2021/05/19 01:12:14;;;;;;;1.40;1.00;;;8.70;99.90;;;;;;6179910;23;20749;-96
2021/05/19 01:14:40;;;;;;;1.17;1.17;;;8.70;99.90;;;;;;6177961;23;20486;-95
2021/05/19 01:17:07;;;;;;;1.60;1.13;;;8.70;99.90;;;;;;6177558;23;20389;-96
2021/05/19 01:19:39;;;;;;;1.37;1.20;;;8.70;99.90;;;;;;6177757;23;20424;-96
2021/05/19 01:22:34;;;;;;;2.50;1.43;;;8.70;99.90;;;;;;6177825;23;20400;-94
2021/05/19 01:24:59;;;;;;;1.43;1.33;;;8.70;99.90;;;;;;6168748;23;20525;-96
2021/05/19 01:27:26;;;;;;;1.20;1.20;;;8.70;99.90;;;;;;6183994;23;20393;-95
2021/05/19 01:29:54;;;;;;;1.63;1.53;;;8.60;99.90;;;;;;6177807;23;20465;-94
2021/05/19 01:32:29;;;;;;;1.43;1.33;;;8.70;99.90;;;;;;6186087;23;20169;-95
2021/05/19 01:35:15;;;;;;;1.40;1.10;;;8.70;99.90;;;;;;6184235;23;20419;-96
2021/05/19 01:37:44;;;;;;;1.30;1.30;;;8.70;99.90;;;;;;6187572;23;20389;-95
2021/05/19 01:40:15;;;;;;;2.10;1.40;;;8.70;99.90;;;;;;6180722;23;20970;-94
2021/05/19 01:42:44;;;;;;;1.53;1.43;;;8.70;99.90;;;;;;6182004;23;20393;-95
2021/05/19 01:45:11;;;;;;;1.13;1.13;;;8.70;99.90;;;;;;6183577;23;20449;-96
2021/05/19 01:47:55;;;;;;;1.40;1.30;;;8.70;99.90;;;;;;6182527;23;20839;-96
2021/05/19 01:50:37;;;;;;;1.40;1.30;;;8.70;99.90;;;;;;6183674;23;20415;-96
2021/05/19 01:53:04;;;;;;;1.37;1.37;;;8.70;99.90;;;;;;6184166;23;20395;-95
2021/05/19 01:55:35;;;;;;;1.10;1.10;;;8.70;99.90;;;;;;6186626;23;20393;-96
2021/05/19 01:58:01;;;;;;;1.37;1.00;;;8.60;99.90;;;;;;6181404;23;20428;-95
2021/05/19 02:00:27;;;;;;;1.27;1.27;;;8.60;99.90;;;;;;6186108;23;20428;-95
2021/05/19 02:02:59;;;;;;;2.17;1.30;;;8.60;99.90;;;;;;6178934;23;20204;-95
2021/05/19 02:05:26;;;;;;;1.37;1.37;;;8.60;99.90;;;;;;6175497;23;20493;-92
2021/05/19 02:07:53;;;;;;;1.20;1.10;;;8.60;99.90;;;;;;6175883;23;20405;-93
2021/05/19 02:10:19;;;;;;;1.27;1.17;;;8.60;99.90;;;;;;6174732;23;20851;-92
2021/05/19 02:12:45;;;;;;;1.63;1.17;;;8.60;99.90;;;;;;6174889;23;20993;-92
2021/05/19 02:15:13;;;;;;;1.27;1.13;;;8.70;99.90;;;;;;6175149;23;20408;-92
2021/05/19 02:17:38;;;;;;;1.40;1.30;;;8.60;99.90;;;;;;6176520;23;20397;-96
2021/05/19 02:20:09;;;;;;;1.47;1.37;;;8.70;99.90;;;;;;6179213;23;20414;-96
2021/05/19 02:22:36;;;;;;;2.93;1.27;;;8.70;99.90;;;;;;6195463;23;20193;-95
2021/05/19 02:25:03;;;;;;;1.67;1.30;;;8.70;99.90;;;;;;6197033;23;20487;-96
2021/05/19 02:27:30;;;;;;;1.37;1.30;;;8.70;99.90;;;;;;6193046;23;20463;-96
2021/05/19 03:08:44;;;;;;;3.70;1.43;;;8.80;99.90;;;;;;6176031;23;20452;-94
2021/05/19 03:11:13;;;;;;;3.00;1.30;;;8.80;99.90;;;;;;6115639;23;20405;-95
2021/05/19 03:13:40;;;;;;;1.60;1.50;;;8.80;99.90;;;;;;6119675;23;20159;-95
2021/05/19 03:16:06;;;;;;;1.63;1.53;;;8.80;99.90;;;;;;6121960;23;20801;-95
2021/05/19 03:18:34;;;;;;;1.20;1.20;;;8.80;99.90;;;;;;6123989;23;20401;-96
2021/05/19 03:21:18;;;;;;;1.77;1.30;;;8.80;99.90;;;;;;6123156;23;20407;-96
2021/05/19 03:23:57;;;;;;;1.50;1.40;;;8.80;99.90;;;;;;6140716;23;20934;-96
2021/05/19 03:26:23;;;;;;;1.33;1.33;;;8.80;99.90;;;;;;6161427;23;20772;-96
2021/05/19 03:29:19;;;;;;;1.40;1.30;;;8.70;99.90;;;;;;6128993;23;20401;-96
2021/05/19 03:31:50;;;;;;;2.30;1.53;;;8.70;99.90;;;;;;6126519;23;20822;-96
2021/05/19 03:34:16;;;;;;;1.70;1.60;;;8.80;99.90;;;;;;6127513;23;20390;-96
2021/05/19 03:36:45;;;;;;;1.87;1.77;;;8.80;99.90;;;;;;6150034;23;20448;-96
2021/05/19 03:39:41;;;;;;;2.20;2.00;;;8.80;99.90;;;;;;6177781;23;20410;-96
2021/05/19 03:42:07;;;;;;;1.60;1.50;;;8.90;99.90;;;;;;6145157;23;20481;-95
2021/05/19 03:44:33;;;;;;;4.13;1.73;;;8.80;99.90;;;;;;6143266;23;20463;-95
2021/05/19 03:46:59;;;;;;;1.70;1.60;;;8.80;99.90;;;;;;6149235;23;20474;-96
2021/05/19 03:49:28;;;;;;;2.37;1.77;;;8.80;99.90;;;;;;6143299;23;20413;-95
2021/05/19 03:51:57;;;;;;;1.60;1.50;;;8.80;99.90;;;;;;6145342;23;20385;-96
2021/05/19 03:54:58;;;;;;;1.70;1.60;;;8.80;99.90;;;;;;6146642;23;20390;-96
2021/05/19 03:57:24;;;;;;;1.63;1.53;;;8.70;99.90;;;;;;6145550;23;20397;-96
2021/05/19 04:00:04;;;;;;;2.03;1.50;;;8.80;99.90;;;;;;6146123;23;20377;-96
2021/05/19 04:02:34;;;;;;;1.70;1.60;;;8.80;99.90;;;;;;6147911;23;20387;-95
2021/05/19 04:05:00;;;;;;;1.93;1.83;;;8.70;99.90;;;;;;6148748;23;20436;-96
2021/05/19 04:07:26;;;;;;;2.07;1.87;;;8.80;99.90;;;;;;6127120;23;20393;-95
2021/05/19 04:09:52;;;;;;;2.20;2.00;;;8.70;99.90;;;;;;6152919;23;20409;-95
2021/05/19 04:12:18;;;;;;;2.50;2.20;;;8.70;99.90;;;;;;6157543;23;20420;-96
2021/05/19 04:14:43;;;;;;;1.83;1.73;;;8.70;99.90;;;;;;6153696;23;20166;-95
2021/05/19 04:17:12;;;;;;;7.17;2.47;;;8.60;99.90;;;;;;6155499;23;20158;-96
2021/05/19 04:19:41;;;;;;;2.50;2.30;;;8.60;99.90;;;;;;6174286;23;20444;-96
2021/05/19 04:22:13;;;;;;;4.70;2.43;;;8.70;99.90;;;;;;6173972;23;20196;-96
2021/05/19 04:24:56;;;;;;;2.23;2.03;;;8.70;99.90;;;;;;6176233;23;20415;-96
2021/05/19 04:27:22;;;;;;;4.97;2.07;;;8.70;99.90;;;;;;6164656;23;20404;-96
2021/05/19 04:29:47;;;;;;;2.60;2.30;;;8.70;99.90;;;;;;6157119;23;20414;-95
2021/05/19 04:32:13;;;;;;;2.17;1.97;;;8.70;99.90;;;;;;6160379;23;20377;-96
2021/05/19 04:34:39;;;;;;;2.43;2.23;;;8.70;99.90;;;;;;6163866;23;20222;-96
2021/05/19 04:37:08;;;;;;;2.83;2.20;;;8.70;99.90;;;;;;6160541;23;20405;-96
2021/05/19 04:39:35;;;;;;;2.33;2.23;;;8.70;99.90;;;;;;6154095;23;20169;-96
2021/05/19 04:42:01;;;;;;;2.00;1.90;;;8.70;99.90;;;;;;6148654;23;20405;-95
2021/05/19 04:44:26;;;;;;;1.93;1.83;;;8.70;99.90;;;;;;6146808;23;20429;-95
2021/05/19 04:46:52;;;;;;;2.20;2.10;;;8.70;99.90;;;;;;6152513;23;20436;-95
2021/05/19 04:49:21;;;;;;;2.80;2.60;;;8.70;99.90;;;;;;6161802;23;20395;-94
2021/05/19 04:52:22;;;;;;;2.20;2.10;;;8.80;99.90;;;;;;6149032;23;20167;-96
2021/05/19 04:55:07;;;;;;;2.63;2.43;;;8.80;99.90;;;;;;6155631;23;20397;-96
2021/05/19 04:57:59;;;;;;;3.77;2.40;;;8.80;99.90;;;;;;6151976;23;20412;-96
2021/05/19 05:00:28;;;;;;;2.50;2.30;;;8.90;99.90;;;;;;6153876;23;20401;-96
2021/05/19 05:03:13;;;;;;;2.50;2.30;;;8.90;99.90;;;;;;6150846;23;20432;-93
2021/05/19 05:05:50;;;;;;;2.43;2.23;;;9.00;99.90;;;;;;6144981;23;20454;-93
2021/05/19 05:08:16;;;;;;;2.80;2.20;;;9.00;99.90;;;;;;6146576;23;20413;-94
2021/05/19 05:10:44;;;;;;;3.10;2.00;;;8.90;99.90;;;;;;6121374;23;20508;-93
2021/05/19 05:13:59;;;;;;;3.30;2.30;;;8.90;99.90;;;;;;6145583;23;20171;-96
2021/05/19 05:16:24;;;;;;;2.30;2.20;;;8.90;99.90;;;;;;6121680;23;20398;-91
2021/05/19 05:18:53;;;;;;;3.57;2.60;;;9.00;99.90;;;;;;6148117;23;20409;-94
2021/05/19 05:21:19;;;;;;;2.27;2.10;;;9.00;99.90;;;;;;6124026;23;20171;-93
2021/05/19 05:23:44;;;;;;;2.90;2.50;;;9.00;99.90;;;;;;6121219;23;20728;-94
2021/05/19 05:26:19;;;;;;;2.47;2.20;;;9.10;99.90;;;;;;6121945;23;20195;-95
2021/05/19 05:28:59;;;;;;;2.57;2.17;;;9.20;99.90;;;;;;6140353;23;20166;-95
2021/05/19 05:31:38;;;;;;;2.37;2.20;;;9.30;99.90;;;;;;6120044;23;20418;-93
2021/05/19 05:34:06;;;;;;;4.73;2.70;;;9.30;99.90;;;;;;6114987;23;20502;-91
2021/05/19 05:36:55;;;;;;;3.10;2.80;;;9.30;99.90;;;;;;6144185;23;20409;-91
2021/05/19 05:39:21;;;;;;;3.13;2.80;;;9.40;99.90;;;;;;6111723;23;20410;-91
2021/05/19 05:41:51;;;;;;;3.20;2.90;;;9.40;99.90;;;;;;6145528;23;20909;-92
2021/05/19 05:44:29;;;;;;;;;;;;;;;;;;;;;
2021/05/19 05:47:07;;;;;;;3.17;2.60;;;9.60;99.90;;;;;;6145363;23;20474;-94
2021/05/19 05:49:32;;;;;;;15.60;4.80;;;9.70;99.90;;;;;;6118516;23;20399;-91
2021/05/19 05:54:48;;;;;;;4.77;4.00;;;9.80;99.90;;;;;;6195613;23;20191;-90
2021/05/19 05:57:14;;;;;;;31.67;11.93;;;9.80;99.90;;;;;;6179591;23;20396;-90
2021/05/19 05:59:40;;;;;;;8.10;3.37;;;9.80;99.90;;;;;;6179450;23;20816;-94
2021/05/19 06:02:07;;;;;;;3.33;2.90;;;9.70;99.90;;;;;;6207716;23;20158;-90
2021/05/19 06:04:34;;;;;;;3.27;3.00;;;9.70;99.90;;;;;;6179240;23;20388;-90
2021/05/19 06:07:09;;;;;;;4.73;2.93;;;9.60;99.90;;;;;;6179790;23;20426;-92
2021/05/19 06:09:34;;;;;;;3.13;2.77;;;9.50;99.90;;;;;;6179572;23;20395;-91
2021/05/19 06:12:00;;;;;;;4.00;2.50;;;9.50;99.90;;;;;;6178862;23;20412;-91
2021/05/19 06:14:26;;;;;;;3.20;2.90;;;9.50;99.90;;;;;;6179003;23;20491;-89
2021/05/19 06:16:52;;;;;;;2.53;2.33;;;9.50;99.90;;;;;;6175537;23;20174;-89
2021/05/19 06:19:17;;;;;;;3.20;2.60;;;9.60;99.90;;;;;;6179000;23;20428;-89
2021/05/19 06:21:46;;;;;;;3.23;2.70;;;9.50;99.90;;;;;;6179262;23;20398;-89
2021/05/19 06:24:22;;;;;;;3.57;3.27;;;9.60;99.90;;;;;;6179814;23;20186;-89
2021/05/19 06:26:57;;;;;;;2.67;2.47;;;9.70;99.90;;;;;;6178953;23;20838;-89
2021/05/19 06:29:25;;;;;;;4.20;3.20;;;9.80;99.90;;;;;;6179170;23;20396;-90
2021/05/19 06:31:51;;;;;;;3.00;2.80;;;10.10;99.90;;;;;;6178962;23;20414;-89
2021/05/19 06:34:18;;;;;;;3.60;3.10;;;10.10;99.90;;;;;;6205654;23;20474;-88
2021/05/19 06:36:46;;;;;;;3.00;2.73;;;10.20;99.90;;;;;;6178669;23;20457;-88
2021/05/19 06:39:19;;;;;;;4.57;3.17;;;10.30;99.90;;;;;;6176580;23;20228;-89
2021/05/19 06:41:48;;;;;;;2.93;2.73;;;10.40;99.90;;;;;;6206470;23;20864;-89
2021/05/19 06:44:15;;;;;;;2.83;2.63;;;10.60;99.90;;;;;;6156081;23;20391;-90
2021/05/19 06:46:42;;;;;;;6.83;2.60;;;10.70;99.90;;;;;;6179141;23;20505;-89
2021/05/19 06:49:31;;;;;;;3.37;3.07;;;10.80;99.90;;;;;;6179282;23;20449;-90
2021/05/19 06:54:51;;;;;;;3.00;2.80;;;10.70;99.90;;;;;;6206903;23;20913;-93
2021/05/19 06:57:16;;;;;;;6.30;3.10;;;10.60;99.90;;;;;;6182376;23;20456;-89
2021/05/19 06:59:42;;;;;;;3.20;3.00;;;10.60;99.90;;;;;;6181453;23;20471;-90
2021/05/19 07:02:10;;;;;;;3.80;3.50;;;10.70;99.90;;;;;;6182073;23;20488;-92
2021/05/19 08:47:40;;;;;;;3.07;2.87;;;11.70;99.90;;;;;;6247053;22;20446;-96
2021/05/19 08:50:07;;;;;;;3.13;2.93;;;11.80;99.90;;;;;;6222522;23;20403;-93
2021/05/19 08:52:42;;;;;;;3.30;3.00;;;12.00;99.90;;;;;;6226792;23;20382;-96
2021/05/19 08:55:13;;;;;;;3.07;2.87;;;12.20;99.90;;;;;;6255264;23;20398;-95
2021/05/19 08:57:43;;;;;;;4.13;3.20;;;12.30;99.90;;;;;;6221293;23;20398;-96
2021/05/19 09:10:37;;;;;;;4.20;2.60;;;13.00;99.90;;;;;;6216230;22;20433;-95
2021/05/19 09:13:28;;;;;;;2.63;2.43;;;13.00;99.90;;;;;;6225528;23;20409;-95
2021/05/19 09:15:57;;;;;;;4.00;2.43;;;13.00;99.90;;;;;;6212039;23;20809;-95
2021/05/19 09:18:44;;;;;;;3.73;2.50;;;13.10;99.90;;;;;;6230425;23;20414;-93
2021/05/19 09:22:03;;;;;;;4.23;2.40;;;13.20;99.90;;;;;;6231841;22;20379;-95
2021/05/19 09:24:41;;;;;;;2.73;2.43;;;13.40;99.90;;;;;;6232559;23;20411;-95
2021/05/19 09:27:07;;;;;;;3.10;2.73;;;13.40;99.90;;;;;;6226792;22;20421;-94
2021/05/19 09:29:37;;;;;;;2.40;2.17;;;13.50;99.90;;;;;;6228916;23;20392;-96
2021/05/19 09:32:08;;;;;;;2.50;2.27;;;13.30;99.90;;;;;;6224338;23;20163;-95
2021/05/19 09:34:37;;;;;;;3.37;2.67;;;13.50;99.90;;;;;;6223254;23;20451;-96
2021/05/19 09:37:12;;;;;;;4.10;3.13;;;13.80;99.90;;;;;;6222823;23;20401;-95
2021/05/19 09:40:07;;;;;;;2.60;2.40;;;14.10;99.90;;;;;;6216153;23;20404;-95
2021/05/19 09:42:35;;;;;;;3.40;2.50;;;13.80;99.90;;;;;;6219164;23;20692;-91
2021/05/19 09:45:32;;;;;;;2.67;2.47;;;13.40;99.90;;;;;;6219903;23;20517;-94
2021/05/19 09:47:59;;;;;;;2.93;2.50;;;13.40;99.90;;;;;;6213335;23;20452;-94
2021/05/19 09:50:43;;;;;;;3.80;2.60;;;13.70;99.90;;;;;;6217938;23;20386;-93
2021/05/19 09:53:22;;;;;;;2.90;2.70;;;13.90;99.90;;;;;;6218193;23;20812;-96
2021/05/19 09:55:54;;;;;;;2.80;2.60;;;14.20;99.90;;;;;;6224856;23;20465;-95
2021/05/19 09:58:40;;;;;;;2.20;2.10;;;14.10;99.90;;;;;;6230667;23;20373;-95
2021/05/19 10:01:10;;;;;;;2.33;1.73;;;13.80;99.80;;;;;;6229140;23;20738;-96
2021/05/19 10:03:38;;;;;;;2.20;1.77;;;13.70;99.90;;;;;;6217313;23;20394;-96
2021/05/19 10:06:13;;;;;;;2.00;1.50;;;13.80;98.90;;;;;;6211630;23;20821;-92
2021/05/19 10:08:39;;;;;;;3.93;1.70;;;14.00;98.40;;;;;;6239023;23;20381;-93
2021/05/19 10:11:05;;;;;;;2.07;1.47;;;14.20;98.60;;;;;;6210670;23;20901;-93
2021/05/19 10:13:33;;;;;;;4.17;1.50;;;14.40;97.90;;;;;;6209167;23;20484;-94
2021/05/19 10:16:04;;;;;;;1.37;1.27;;;14.80;95.80;;;;;;6212439;23;20162;-92
2021/05/19 10:18:33;;;;;;;1.83;1.47;;;15.20;94.70;;;;;;6210966;23;20386;-92
2021/05/19 10:21:00;;;;;;;1.37;1.27;;;14.90;96.80;;;;;;6211204;23;20421;-93
2021/05/19 10:23:41;;;;;;;1.53;1.43;;;15.50;96.60;;;;;;6211527;23;20393;-95
2021/05/19 10:26:13;;;;;;;7.10;2.00;;;16.80;95.90;;;;;;6209388;23;20499;-96
2021/05/19 10:33:46;;;;;;;1.37;1.17;;;16.50;88.50;;;;;;6186804;23;20450;-91
2021/05/19 10:36:24;;;;;;;2.50;1.30;;;15.40;92.50;;;;;;6151267;23;20409;-94
2021/05/19 10:39:11;;;;;;;1.47;1.30;;;15.20;94.20;;;;;;6179432;23;20877;-95
2021/05/19 10:41:41;;;;;;;2.50;1.53;;;14.90;92.10;;;;;;6185842;23;20407;-95
2021/05/19 10:44:09;;;;;;;2.50;1.27;;;14.30;93.10;;;;;;6174930;23;20412;-92
2021/05/19 10:46:56;;;;;;;0.73;0.73;;;14.20;93.90;;;;;;6173696;23;20439;-93
2021/05/19 10:49:22;;;;;;;1.07;1.00;;;14.10;93.00;;;;;;6174252;23;20410;-91
2021/05/19 10:52:09;;;;;;;2.43;1.00;;;14.00;93.90;;;;;;6151414;23;20458;-91
2021/05/19 10:57:44;;;;;;;0.97;0.83;;;14.30;92.80;;;;;;6179133;23;20727;-91
2021/05/19 11:00:22;;;;;;;1.13;0.80;;;15.40;91.40;;;;;;6176637;23;20721;-93
2021/05/19 11:02:54;;;;;;;0.80;0.80;;;16.50;91.50;;;;;;6177161;23;20408;-96
2021/05/19 11:05:31;;;;;;;1.27;0.70;;;16.80;83.60;;;;;;6175326;23;20751;-91
2021/05/19 11:08:10;;;;;;;0.80;0.80;;;17.40;86.60;;;;;;6178679;23;20425;-91
2021/05/19 11:10:45;;;;;;;1.17;0.90;;;18.10;85.20;;;;;;6176250;23;20685;-92
2021/05/19 11:13:11;;;;;;;0.50;0.50;;;18.00;83.20;;;;;;6175478;23;20399;-91
2021/05/19 11:15:38;;;;;;;0.60;0.60;;;17.20;83.80;;;;;;6180184;23;20930;-92
2021/05/19 11:18:17;;;;;;;1.70;1.23;;;17.40;79.10;;;;;;6175709;23;20423;-93
2021/05/19 11:20:44;;;;;;;1.00;0.80;;;17.70;83.40;;;;;;6175794;23;20391;-93
2021/05/19 11:23:14;;;;;;;1.40;1.30;;;17.80;73.40;;;;;;6173900;23;20406;-93
2021/05/19 11:25:40;;;;;;;1.50;0.80;;;17.90;83.40;;;;;;6176282;23;20839;-94
2021/05/19 11:28:06;;;;;;;0.77;0.77;;;17.90;79.60;;;;;;6176251;23;20445;-90
2021/05/19 11:30:32;;;;;;;1.23;0.70;;;18.00;71.60;;;;;;6174964;23;20448;-93
2021/05/19 11:33:10;;;;;;;0.83;0.60;;;18.00;69.30;;;;;;6174001;23;20394;-93
2021/05/19 11:35:36;;;;;;;1.33;0.90;;;18.20;75.20;;;;;;6175607;23;20467;-93
2021/05/19 11:38:08;;;;;;;0.70;0.70;;;18.40;71.40;;;;;;6177253;23;20490;-93
2021/05/19 11:40:44;;;;;;;1.17;0.73;;;18.60;75.40;;;;;;6175732;23;20403;-93
2021/05/19 11:43:15;;;;;;;1.00;0.87;;;17.50;64.10;;;;;;6175867;23;20398;-90
2021/05/19 11:45:42;;;;;;;1.30;1.07;;;17.50;67.20;;;;;;6175310;23;20481;-94
2021/05/19 11:48:23;;;;;;;1.30;0.87;;;18.30;68.20;;;;;;6179053;23;20396;-96
2021/05/19 11:50:53;;;;;;;0.87;0.80;;;18.70;69.80;;;;;;6177711;23;20400;-95
2021/05/19 11:53:27;;;;;;;3.47;0.70;;;19.80;73.80;;;;;;6185320;23;20898;-96
2021/05/19 11:55:57;;;;;;;1.00;0.73;;;19.90;68.40;;;;;;6183584;23;20752;-96
2021/05/19 11:58:33;;;;;;;0.90;0.90;;;18.60;67.90;;;;;;6177353;23;20439;-88
2021/05/19 12:01:05;;;;;;;2.80;1.30;;;19.00;78.90;;;;;;6175787;23;20711;-91
2021/05/19 12:03:32;;;;;;;1.00;0.80;;;19.50;72.20;;;;;;6175003;23;20403;-91
2021/05/19 12:06:00;;;;;;;3.23;0.90;;;19.60;61.50;;;;;;6172969;23;20470;-90
2021/05/19 12:08:35;;;;;;;3.40;0.70;;;19.20;56.80;;;;;;6180435;23;20379;-94
2021/05/19 12:11:09;;;;;;;2.60;0.80;;;18.10;59.30;;;;;;6187319;23;20453;-94
2021/05/19 12:13:37;;;;;;;3.10;0.80;;;17.50;56.80;;;;;;6177243;23;20391;-95
2021/05/19 12:16:05;;;;;;;0.70;0.70;;;17.40;55.10;;;;;;6173426;23;20410;-94
2021/05/19 12:18:30;;;;;;;1.40;1.13;;;18.40;58.60;;;;;;6182607;23;20973;-90
2021/05/19 12:20:59;;;;;;;1.00;0.70;;;18.70;57.20;;;;;;6184653;23;20458;-94
2021/05/19 12:23:30;;;;;;;2.77;1.10;;;19.00;58.80;;;;;;6180325;23;20204;-94
2021/05/19 12:26:03;;;;;;;0.60;0.60;;;18.60;56.90;;;;;;6176399;23;20446;-93
2021/05/19 12:28:28;;;;;;;0.60;0.60;;;19.50;58.20;;;;;;6151702;23;20801;-96
2021/05/19 12:30:59;;;;;;;1.53;0.80;;;19.20;54.30;;;;;;6156604;23;20961;-96
2021/05/19 12:33:40;;;;;;;3.57;0.90;;;19.00;57.80;;;;;;6158073;23;20164;-93
2021/05/19 12:36:08;;;;;;;0.67;0.60;;;18.40;57.00;;;;;;6153436;23;20550;-95
2021/05/19 12:38:48;;;;;;;0.73;0.70;;;18.50;56.80;;;;;;6177213;23;20371;-93
2021/05/19 12:41:15;;;;;;;2.70;0.83;;;19.20;61.10;;;;;;6173217;23;20399;-94
2021/05/19 12:43:43;;;;;;;1.00;0.63;;;19.70;55.50;;;;;;6152194;23;20678;-92
2021/05/19 12:46:14;;;;;;;2.50;0.90;;;19.30;52.60;;;;;;6149023;23;20447;-90
2021/05/19 12:51:56;;;;;;;3.73;0.70;;;19.60;54.70;;;;;;6176299;23;20431;-93
2021/05/19 12:54:32;;;;;;;1.27;0.80;;;19.30;56.20;;;;;;6176551;23;20387;-95
2021/05/19 12:57:29;;;;;;;3.70;0.90;;;19.40;50.30;;;;;;6127478;23;20403;-93
2021/05/19 13:00:12;;;;;;;3.47;0.90;;;18.70;50.80;;;;;;6158148;23;20455;-96
2021/05/19 13:02:45;;;;;;;3.47;0.83;;;19.00;53.90;;;;;;6180003;23;20446;-95
2021/05/19 13:05:34;;;;;;;0.63;0.63;;;20.20;59.00;;;;;;6184786;23;20434;-96
2021/05/19 13:08:18;;;;;;;1.53;0.90;;;21.30;58.40;;;;;;6206848;23;20397;-95
2021/05/19 13:10:48;;;;;;;1.37;1.10;;;22.30;57.50;;;;;;6186539;23;20482;-96
2021/05/19 13:13:43;;;;;;;1.57;1.00;;;21.90;56.60;;;;;;6207072;23;20462;-95
2021/05/19 13:16:34;;;;;;;7.03;1.27;;;21.50;57.50;;;;;;6193554;23;20394;-96
2021/05/19 13:29:17;;;;;;;1.53;0.80;;;19.80;50.90;;;;;;6159164;23;20451;-95
2021/05/19 13:38:03;;;;;;;1.53;1.30;;;21.30;51.00;;;;;;6234714;23;20437;-96
2021/05/19 13:43:11;;;;;;;2.40;0.73;;;19.00;53.10;;;;;;6199161;22;20455;-96
2021/05/19 13:48:16;;;;;;;3.43;1.00;;;18.60;55.90;;;;;;6163478;23;20913;-96
2021/05/19 13:56:01;;;;;;;0.70;0.60;;;23.00;52.80;;;;;;6215145;22;20449;-96
2021/05/19 13:58:29;;;;;;;1.00;0.90;;;28.10;42.90;;;;;;6223092;23;20399;-95
2021/05/19 14:00:56;;;;;;;0.77;0.70;;;25.70;36.50;;;;;;6194249;23;20413;-94
2021/05/19 14:03:37;;;;;;;0.93;0.80;;;21.00;41.00;;;;;;6193790;23;20398;-96
2021/05/19 14:08:50;;;;;;;1.33;0.97;;;23.50;46.00;;;;;;6173170;22;21625;-94
2021/05/19 14:11:31;;;;;;;4.90;1.10;;;26.50;40.20;;;;;;6206199;23;20415;-96
2021/05/19 14:14:26;;;;;;;2.77;1.20;;;25.70;39.10;;;;;;6161153;23;20609;-96
2021/05/19 14:29:44;;;;;;;2.60;0.70;;;24.30;43.00;;;;;;6201165;23;20874;-92
2021/05/19 14:32:10;;;;;;;2.43;1.23;;;21.90;40.70;;;;;;6174550;23;20550;-93
2021/05/19 14:34:36;;;;;;;2.07;1.10;;;20.40;44.60;;;;;;6179091;23;20403;-96
2021/05/19 14:43:49;;;;;;;4.10;1.10;;;25.70;43.00;;;;;;6205348;23;20389;-94
2021/05/19 15:01:39;;;;;;;1.03;0.90;;;18.60;58.60;;;;;;6177137;23;20427;-94
2021/05/19 15:04:21;;;;;;;2.20;1.00;;;18.60;58.80;;;;;;6178154;23;20164;-96
2021/05/19 15:06:49;;;;;;;1.90;0.90;;;18.00;62.90;;;;;;6186971;23;20509;-95
2021/05/19 15:09:14;;;;;;;1.90;0.90;;;18.60;62.70;;;;;;6189248;23;20403;-94
2021/05/19 15:11:42;;;;;;;1.70;0.80;;;18.30;62.50;;;;;;6190161;23;20745;-96
2021/05/19 15:14:09;;;;;;;0.90;0.90;;;19.30;63.00;;;;;;6180936;23;20175;-95
2021/05/19 15:16:37;;;;;;;2.20;0.80;;;18.90;61.20;;;;;;6183905;23;20407;-94
2021/05/19 15:19:05;;;;;;;2.97;0.63;;;19.30;61.70;;;;;;6190777;23;20404;-95
2021/05/19 15:21:35;;;;;;;0.93;0.93;;;19.50;60.90;;;;;;6194728;23;20435;-96
2021/05/19 15:24:01;;;;;;;1.77;0.70;;;19.30;60.50;;;;;;6193804;23;20464;-96
2021/05/19 15:26:29;;;;;;;2.33;0.70;;;19.30;57.70;;;;;;6188616;23;20447;-96
2021/05/19 15:28:56;;;;;;;1.30;1.20;;;18.90;58.20;;;;;;6180813;23;20396;-95
2021/05/19 15:31:23;;;;;;;0.70;0.60;;;18.20;60.60;;;;;;6187929;23;20403;-95
2021/05/19 15:36:39;;;;;;;1.07;0.70;;;18.40;61.60;;;;;;6230817;23;20406;-95
2021/05/19 15:39:05;;;;;;;1.13;0.80;;;17.00;63.70;;;;;;6204583;23;20474;-96
2021/05/19 15:41:33;;;;;;;0.70;0.70;;;16.50;66.60;;;;;;6157552;23;20460;-96
2021/05/19 15:44:02;;;;;;;2.00;0.80;;;15.90;68.90;;;;;;6196164;23;20408;-95
2021/05/19 15:46:31;;;;;;;0.60;0.60;;;15.70;70.40;;;;;;6194683;23;20201;-96
2021/05/19 15:51:43;;;;;;;1.23;0.60;;;16.00;71.50;;;;;;6171541;22;20430;-95
2021/05/19 15:56:50;;;;;;;1.10;0.70;;;16.00;74.40;;;;;;6240044;22;20464;-95
2021/05/19 16:04:29;;;;;;;0.73;0.73;;;15.80;71.40;;;;;;6208116;23;20224;-95
2021/05/19 16:07:33;;;;;;;0.53;0.53;;;15.20;73.80;;;;;;6145435;23;20455;-95
2021/05/19 16:20:25;;;;;;;0.90;0.80;;;14.60;81.70;;;;;;6198799;23;20449;-85
2021/05/19 16:26:12;;;;;;;1.30;0.53;;;14.60;84.10;;;;;;6222836;23;20498;-86
2021/05/19 16:28:39;;;;;;;0.73;0.73;;;14.60;84.40;;;;;;6195330;23;20391;-85
2021/05/19 16:31:13;;;;;;;0.80;0.60;;;15.00;86.60;;;;;;6194059;23;20152;-86
2021/05/19 16:37:06;;;;;;;0.63;0.63;;;16.80;78.60;;;;;;6224004;23;20398;-90
2021/05/19 16:42:55;;;;;;;0.50;0.50;;;19.20;66.20;;;;;;6222649;23;20402;-90
2021/05/19 16:48:54;;;;;;;0.67;0.50;;;18.00;67.60;;;;;;6222049;23;20382;-89
2021/05/19 16:51:20;;;;;;;0.90;0.70;;;17.50;69.20;;;;;;6198278;23;20398;-91
2021/05/19 16:53:45;;;;;;;0.70;0.70;;;17.60;68.90;;;;;;6224893;22;20454;-87
2021/05/19 16:59:33;;;;;;;0.60;0.60;;;17.60;69.20;;;;;;6245588;23;20494;-88
2021/05/19 17:05:21;;;;;;;1.07;0.90;;;19.10;65.50;;;;;;6245641;23;20437;-86
2021/05/19 17:11:09;;;;;;;1.33;0.70;;;20.50;60.50;;;;;;6246000;23;20209;-86
2021/05/19 17:13:34;;;;;;;2.30;0.70;;;20.00;61.40;;;;;;6243902;23;20856;-85
2021/05/19 17:19:22;;;;;;;1.00;0.60;;;17.60;65.00;;;;;;6246526;23;20490;-88
2021/05/19 17:25:12;;;;;;;1.10;0.87;;;15.70;71.70;;;;;;6247866;23;20204;-89
2021/05/19 17:31:00;;;;;;;0.90;0.90;;;14.80;76.70;;;;;;6245468;23;20472;-91
2021/05/19 17:37:01;;;;;;;0.90;0.90;;;14.80;79.00;;;;;;6245357;23;20168;-91
2021/05/19 17:42:49;;;;;;;1.07;1.07;;;16.30;76.20;;;;;;6247424;23;20177;-93
2021/05/19 17:48:37;;;;;;;0.80;0.80;;;17.50;69.70;;;;;;6248066;23;20591;-93
2021/05/19 17:54:40;;;;;;;1.57;1.47;;;17.10;68.70;;;;;;6247798;22;20424;-94
2021/05/19 18:00:34;;;;;;;2.80;1.70;;;15.60;74.80;;;;;;6245697;23;20166;-95
2021/05/19 18:03:00;;;;;;;1.10;1.10;;;15.40;76.60;;;;;;6245871;23;20397;-93
2021/05/19 18:08:47;;;;;;;2.70;0.83;;;14.10;78.90;;;;;;6247426;23;20477;-95
2021/05/19 18:11:13;;;;;;;3.50;1.00;;;14.00;81.20;;;;;;6247912;23;20386;-95
2021/05/19 18:17:01;;;;;;;1.03;1.03;;;14.30;81.50;;;;;;6243710;23;20230;-88
2021/05/19 18:22:50;;;;;;;0.83;0.83;;;13.80;84.50;;;;;;6243658;23;20208;-87
2021/05/19 18:25:16;;;;;;;0.93;0.83;;;13.50;85.50;;;;;;6241960;23;20883;-88
2021/05/19 18:37:06;;;;;;;0.83;0.83;;;13.00;91.00;;;;;;6244877;23;20386;-82
2021/05/19 18:39:34;;;;;;;1.40;1.00;;;12.90;91.90;;;;;;6241912;22;20439;-83
2021/05/19 18:42:00;;;;;;;3.63;1.50;;;12.90;93.00;;;;;;6241889;23;20393;-82
2021/05/19 18:44:26;;;;;;;3.10;1.70;;;12.80;93.80;;;;;;6242196;23;20390;-84